Time;durP1;ratioP1;P1;durP2;ratioP2;P2;SDS_P1;SDS_P2;PMS_P1;PMS_P2;Temp;Humidity;BMP_temperature;BMP_pressure;BME280_temperature;BME280_humidity;BME280_pressure;Samples;Min_cycle;Max_cycle;Signal;HPM_P1;HPM_P2
2022/07/06 00:01:04;;;;;;;8.20;5.70;;;;;;;16.61;95.12;97969.95;105377;1284;22565;-82
2022/07/06 00:03:32;;;;;;;7.90;5.60;;;;;;;16.69;95.10;97973.47;105383;1284;24145;-81
2022/07/06 00:06:01;;;;;;;8.40;5.70;;;;;;;16.91;96.60;97963.52;105395;1284;22551;-82
2022/07/06 00:08:29;;;;;;;10.20;5.40;;;;;;;17.19;96.61;97963.48;105365;1284;22550;-83
2022/07/06 00:10:57;;;;;;;7.20;5.60;;;;;;;17.42;95.85;97965.06;105402;1284;24284;-81
2022/07/06 00:13:25;;;;;;;7.10;5.20;;;;;;;17.61;95.22;97966.67;105373;1283;22552;-78
2022/07/06 00:15:53;;;;;;;6.60;5.90;;;;;;;17.86;95.84;97971.84;105341;1284;24293;-81
2022/07/06 00:18:21;;;;;;;6.10;5.50;;;;;;;17.79;93.71;97969.54;105343;1284;23935;-81
2022/07/06 00:20:49;;;;;;;7.10;6.40;;;;;;;17.65;93.64;97970.14;105219;1284;25330;-81
2022/07/06 00:23:17;;;;;;;7.50;6.70;;;;;;;17.43;93.90;97967.36;105303;1284;22701;-82
2022/07/06 00:25:45;;;;;;;9.20;6.60;;;;;;;17.57;95.08;97968.16;105342;1284;22865;-82
2022/07/06 00:28:14;;;;;;;7.70;7.00;;;;;;;17.51;93.47;97962.55;105343;1284;24212;-82
2022/07/06 00:30:42;;;;;;;8.20;6.80;;;;;;;17.35;93.38;97964.55;105425;1284;22709;-86
2022/07/06 00:33:10;;;;;;;6.80;6.10;;;;;;;17.22;93.65;97960.86;105388;1284;24396;-84
2022/07/06 00:35:38;;;;;;;8.70;6.40;;;;;;;17.04;94.25;97964.50;105397;1284;22543;-83
2022/07/06 00:38:06;;;;;;;9.20;7.20;;;;;;;16.90;94.52;97958.65;105221;1284;25478;-85
2022/07/06 00:40:34;;;;;;;7.80;7.00;;;;;;;16.96;95.76;97956.77;105398;1284;22591;-85
2022/07/06 00:43:03;;;;;;;7.70;7.00;;;;;;;16.97;94.93;97951.83;105380;1284;22805;-83
2022/07/06 00:45:32;;;;;;;7.90;6.90;;;;;;;16.95;94.82;97952.13;105355;1284;22706;-84
2022/07/06 00:48:00;;;;;;;10.20;7.70;;;;;;;16.90;94.86;97957.17;105330;1284;22560;-84
2022/07/06 00:50:30;;;;;;;8.10;7.40;;;;;;;16.79;94.66;97960.16;105314;1285;23226;-84
2022/07/06 00:53:04;;;;;;;7.80;7.00;;;;;;;16.74;94.66;97962.71;105407;1284;25397;-83
2022/07/06 00:55:40;;;;;;;7.70;7.10;;;;;;;16.69;95.12;97961.42;105321;1284;22568;-85
2022/07/06 00:58:09;;;;;;;7.20;6.30;;;;;;;16.61;95.54;97962.09;105387;1284;22756;-85
2022/07/06 01:00:44;;;;;;;6.80;6.10;;;;;;;16.56;95.68;97963.87;105211;1284;22562;-84
2022/07/06 01:03:12;;;;;;;7.90;6.20;;;;;;;16.51;96.53;97959.95;105248;1285;25340;-84
2022/07/06 01:05:40;;;;;;;8.10;6.60;;;;;;;16.47;96.70;97964.25;105314;1284;25429;-84
2022/07/06 01:08:08;;;;;;;8.70;6.40;;;;;;;16.43;97.05;97964.80;105335;1284;24255;-84
2022/07/06 01:10:37;;;;;;;7.10;6.40;;;;;;;16.41;96.53;97971.41;105168;1284;22540;-84
2022/07/06 01:13:05;;;;;;;8.40;6.70;;;;;;;16.41;96.75;97975.86;105289;1284;22553;-83
2022/07/06 01:15:33;;;;;;;7.70;7.00;;;;;;;16.41;97.77;97982.45;105200;1284;24370;-84
2022/07/06 01:18:01;;;;;;;9.00;8.20;;;;;;;16.38;98.31;97981.04;105417;1284;22617;-83
2022/07/06 01:20:29;;;;;;;8.80;7.70;;;;;;;16.33;98.50;97980.95;105214;1284;25421;-84
2022/07/06 01:22:59;;;;;;;10.00;8.90;;;;;;;16.31;98.79;97980.71;105393;1284;22565;-84
2022/07/06 01:25:27;;;;;;;11.40;10.30;;;;;;;16.28;98.82;97983.17;105441;1284;24345;-84
2022/07/06 01:27:55;;;;;;;11.60;10.50;;;;;;;16.27;99.37;97984.86;105437;1284;24314;-84
2022/07/06 01:30:23;;;;;;;13.80;12.50;;;;;;;16.27;99.18;97988.55;105455;1284;25299;-84
2022/07/06 01:32:51;;;;;;;16.50;15.10;;;;;;;16.25;99.41;97991.55;105651;1284;22555;-85
2022/07/06 01:35:20;;;;;;;17.50;15.80;;;;;;;16.26;99.82;97988.92;105369;1284;22664;-84
2022/07/06 01:37:48;;;;;;;19.10;17.40;;;;;;;16.26;99.82;97991.01;105106;1285;25485;-83
2022/07/06 01:40:16;;;;;;;21.60;19.70;;;;;;;16.24;100.00;97987.77;105325;1284;22720;-85
2022/07/06 01:42:44;;;;;;;22.10;19.80;;;;;;;16.22;100.00;97983.17;105294;1284;25549;-86
2022/07/06 01:45:13;;;;;;;20.30;18.40;;;;;;;16.22;100.00;97979.84;105615;1284;22577;-85
2022/07/06 01:47:42;;;;;;;21.90;20.00;;;;;;;16.18;100.00;97977.12;105449;1284;25377;-85
2022/07/06 01:50:11;;;;;;;22.90;20.90;;;;;;;16.16;100.00;97973.81;105266;1283;22565;-85
2022/07/06 01:52:42;;;;;;;23.00;20.90;;;;;;;16.14;100.00;97974.66;105240;1284;22573;-85
2022/07/06 01:55:10;;;;;;;23.50;21.20;;;;;;;16.17;100.00;97975.69;105008;1285;240420;-83
2022/07/06 01:57:39;;;;;;;23.60;21.40;;;;;;;16.16;100.00;97977.77;105303;1284;22634;-83
2022/07/06 02:00:10;;;;;;;23.70;21.50;;;;;;;16.13;100.00;97980.30;105377;1284;25336;-83
2022/07/06 02:02:44;;;;;;;23.60;21.50;;;;;;;16.09;100.00;97978.92;105312;1284;24220;-84
2022/07/06 02:05:12;;;;;;;23.70;21.60;;;;;;;16.08;100.00;97977.02;105184;1285;24282;-83
2022/07/06 02:07:41;;;;;;;25.00;22.80;;;;;;;16.09;100.00;97979.98;105282;1284;22585;-84
2022/07/06 02:10:10;;;;;;;24.70;22.00;;;;;;;16.08;100.00;97971.42;105208;1284;24420;-88
2022/07/06 02:12:38;;;;;;;24.80;22.40;;;;;;;16.05;100.00;97968.45;105450;1284;24433;-89
2022/07/06 02:15:06;;;;;;;26.70;24.40;;;;;;;16.05;100.00;97968.83;105348;1285;22619;-88
2022/07/06 02:17:34;;;;;;;23.10;21.00;;;;;;;16.04;100.00;97972.61;105896;1284;24116;-90
2022/07/06 02:20:05;;;;;;;23.90;21.80;;;;;;;16.01;100.00;97969.98;105560;1284;24442;-90
2022/07/06 02:22:33;;;;;;;25.30;22.70;;;;;;;15.96;100.00;97972.76;105463;1284;25628;-90
2022/07/06 02:25:01;;;;;;;24.00;21.90;;;;;;;15.92;100.00;97971.98;105226;1284;22675;-91
2022/07/06 02:27:30;;;;;;;23.90;21.70;;;;;;;15.92;100.00;97968.13;105259;1284;22721;-90
2022/07/06 02:30:01;;;;;;;23.10;21.20;;;;;;;15.88;100.00;97968.52;105511;1284;22575;-89
2022/07/06 02:32:31;;;;;;;22.60;20.40;;;;;;;15.88;100.00;97962.48;105467;1284;22555;-90
2022/07/06 02:35:00;;;;;;;23.30;21.10;;;;;;;15.84;100.00;97959.30;105500;1284;23003;-88
2022/07/06 02:37:27;;;;;;;23.60;21.50;;;;;;;15.83;100.00;97958.55;105555;1284;24255;-90
2022/07/06 02:39:56;;;;;;;24.00;21.80;;;;;;;15.78;100.00;97963.17;105274;1284;22682;-92
2022/07/06 02:42:24;;;;;;;24.40;21.90;;;;;;;15.77;100.00;97968.89;105287;1284;22672;-87
2022/07/06 02:44:53;;;;;;;24.10;21.90;;;;;;;15.74;100.00;97966.20;105495;1284;22699;-91
2022/07/06 02:47:21;;;;;;;22.70;20.80;;;;;;;15.71;100.00;97973.63;105515;1284;24759;-90
2022/07/06 02:49:50;;;;;;;23.80;21.80;;;;;;;15.67;100.00;97978.91;105292;1285;22696;-89
2022/07/06 02:52:19;;;;;;;23.30;21.30;;;;;;;15.67;100.00;97978.42;105675;1284;22795;-89
2022/07/06 02:54:48;;;;;;;22.50;20.50;;;;;;;15.68;100.00;97982.65;105955;1284;22565;-89
2022/07/06 02:57:17;;;;;;;21.30;19.60;;;;;;;15.65;100.00;97987.13;105590;1283;22703;-90
2022/07/06 02:59:46;;;;;;;21.90;19.90;;;;;;;15.64;100.00;97988.78;105588;1284;25358;-89
2022/07/06 03:02:16;;;;;;;21.90;20.00;;;;;;;15.65;100.00;97989.20;105208;1284;22704;-91
2022/07/06 03:04:44;;;;;;;22.60;20.60;;;;;;;15.68;100.00;97991.84;105416;1284;24385;-90
2022/07/06 03:07:13;;;;;;;23.40;21.30;;;;;;;15.69;100.00;97992.49;105375;1284;22701;-89
2022/07/06 03:09:41;;;;;;;21.70;19.40;;;;;;;15.68;100.00;97993.39;105379;1284;23948;-87
2022/07/06 03:12:10;;;;;;;22.10;20.30;;;;;;;15.69;100.00;97988.91;105465;1285;25393;-89
2022/07/06 03:14:57;;;;;;;21.70;19.80;;;;;;;15.71;100.00;97994.95;105299;1284;23435;-88
2022/07/06 03:17:27;;;;;;;23.80;21.70;;;;;;;15.70;100.00;97995.61;107066;1284;22979;-85
2022/07/06 03:19:54;;;;;;;23.40;21.20;;;;;;;15.73;100.00;97999.37;107174;1284;22704;-87
2022/07/06 03:22:23;;;;;;;22.40;20.30;;;;;;;15.74;100.00;98000.96;105809;1284;22732;-88
2022/07/06 03:24:51;;;;;;;22.30;20.40;;;;;;;15.76;100.00;98002.83;105345;1284;22573;-89
2022/07/06 03:27:19;;;;;;;23.20;21.10;;;;;;;15.77;100.00;98000.77;105166;1284;23073;-87
2022/07/06 03:29:47;;;;;;;23.90;21.40;;;;;;;15.79;100.00;98001.73;105204;1285;22645;-87
2022/07/06 03:32:16;;;;;;;23.90;21.80;;;;;;;15.79;100.00;97996.84;105315;1284;22600;-88
2022/07/06 03:34:45;;;;;;;24.00;21.60;;;;;;;15.79;100.00;97998.66;105323;1284;22750;-90
2022/07/06 03:37:13;;;;;;;23.70;21.50;;;;;;;15.77;100.00;98003.56;105228;1284;22651;-89
2022/07/06 03:39:41;;;;;;;24.40;22.20;;;;;;;15.74;100.00;98004.80;105221;1284;22566;-88
2022/07/06 03:42:09;;;;;;;24.70;22.60;;;;;;;15.75;100.00;98003.81;105484;1284;22575;-89
2022/07/06 03:44:37;;;;;;;23.40;21.50;;;;;;;15.74;100.00;98006.80;105168;1284;23360;-88
2022/07/06 03:47:05;;;;;;;25.00;22.80;;;;;;;15.76;100.00;98008.75;105567;1284;25099;-88
2022/07/06 03:49:33;;;;;;;26.20;23.60;;;;;;;15.78;100.00;98012.48;105198;1284;22581;-89
2022/07/06 03:52:02;;;;;;;24.40;22.50;;;;;;;15.80;100.00;98010.89;105402;1284;22618;-92
2022/07/06 03:54:35;;;;;;;22.40;20.60;;;;;;;15.85;100.00;98009.94;105270;1284;22577;-90
2022/07/06 03:57:05;;;;;;;22.20;20.00;;;;;;;15.89;100.00;98011.10;105470;1284;22603;-91
2022/07/06 03:59:33;;;;;;;21.20;19.30;;;;;;;15.93;100.00;98010.67;105441;1283;22560;-90
2022/07/06 04:02:02;;;;;;;19.00;17.30;;;;;;;15.98;100.00;98009.45;105252;1284;22581;-90
2022/07/06 04:04:30;;;;;;;21.50;19.80;;;;;;;15.98;100.00;98005.81;105400;1285;22617;-90
2022/07/06 04:06:58;;;;;;;22.50;20.60;;;;;;;15.96;100.00;98007.23;105385;1285;22570;-89
2022/07/06 04:09:27;;;;;;;17.50;16.00;;;;;;;16.01;100.00;98011.48;105506;1284;22661;-89
2022/07/06 04:11:55;;;;;;;12.50;11.40;;;;;;;16.09;100.00;98014.02;105241;1285;22880;-90
2022/07/06 04:14:23;;;;;;;11.60;10.20;;;;;;;16.15;100.00;98014.23;105256;1285;24394;-90
2022/07/06 04:16:50;;;;;;;12.50;11.40;;;;;;;16.21;100.00;98016.41;105206;1286;22755;-89
2022/07/06 04:19:19;;;;;;;10.90;9.80;;;;;;;16.32;100.00;98020.13;105511;1284;22576;-90
2022/07/06 04:21:47;;;;;;;13.10;9.10;;;;;;;16.40;100.00;98023.29;105250;1284;24474;-91
2022/07/06 04:24:15;;;;;;;11.70;8.60;;;;;;;16.55;100.00;98027.11;105488;1284;23314;-88
2022/07/06 04:26:43;;;;;;;11.40;10.10;;;;;;;16.69;100.00;98025.48;106824;1284;22550;-92
2022/07/06 04:29:11;;;;;;;11.50;10.40;;;;;;;16.79;99.96;98025.85;106944;1285;24132;-91
2022/07/06 04:31:39;;;;;;;12.10;10.50;;;;;;;16.86;99.94;98026.03;106138;1285;22618;-88
2022/07/06 04:34:07;;;;;;;12.40;11.10;;;;;;;16.99;100.00;98029.48;105494;1284;25243;-89
2022/07/06 04:36:35;;;;;;;10.30;9.30;;;;;;;17.09;99.56;98028.89;104924;1284;24452;-88
2022/07/06 04:39:03;;;;;;;11.50;8.40;;;;;;;17.12;99.19;98030.77;105187;1284;25471;-87
2022/07/06 04:41:32;;;;;;;9.00;8.10;;;;;;;17.15;98.18;98033.45;105207;1284;22617;-87
2022/07/06 04:44:00;;;;;;;10.10;9.20;;;;;;;17.06;96.69;98035.56;105185;1284;24311;-86
2022/07/06 04:46:28;;;;;;;9.50;8.60;;;;;;;16.96;97.45;98040.45;105255;1284;22563;-88
2022/07/06 04:48:57;;;;;;;10.20;8.50;;;;;;;17.00;97.61;98041.51;105197;1285;22579;-88
2022/07/06 04:51:28;;;;;;;10.90;9.00;;;;;;;17.06;97.73;98045.05;105525;1284;22566;-86
2022/07/06 04:53:56;;;;;;;9.00;8.10;;;;;;;17.11;97.04;98051.16;105202;1284;24354;-86
2022/07/06 04:56:24;;;;;;;8.50;7.60;;;;;;;17.11;95.96;98050.48;105303;1285;22632;-87
2022/07/06 04:58:53;;;;;;;8.20;7.40;;;;;;;17.10;96.31;98049.63;105413;1284;22577;-88
2022/07/06 05:01:21;;;;;;;9.20;8.20;;;;;;;17.13;95.48;98050.04;105209;1285;22598;-89
2022/07/06 05:03:49;;;;;;;10.90;9.90;;;;;;;17.14;94.79;98053.17;104976;1285;22677;-89
2022/07/06 05:06:19;;;;;;;11.40;10.30;;;;;;;17.06;94.85;98055.88;105403;1284;25359;-89
2022/07/06 05:08:48;;;;;;;13.40;11.80;;;;;;;17.01;95.19;98058.89;105234;1285;22594;-90
2022/07/06 05:11:16;;;;;;;19.30;17.60;;;;;;;17.09;96.13;98061.97;105462;1285;22590;-87
2022/07/06 05:13:44;;;;;;;18.50;16.90;;;;;;;17.20;96.29;98065.04;105539;1284;22569;-89
2022/07/06 05:16:12;;;;;;;15.00;13.50;;;;;;;17.26;95.46;98073.41;105127;1285;24229;-89
2022/07/06 05:18:40;;;;;;;17.30;15.70;;;;;;;17.26;94.92;98068.23;105172;1285;22723;-89
2022/07/06 05:21:09;;;;;;;15.30;13.90;;;;;;;17.22;95.21;98072.04;105433;1284;22769;-88
2022/07/06 05:23:36;;;;;;;15.50;11.40;;;;;;;17.16;94.52;98069.75;105260;1285;22621;-88
2022/07/06 05:26:05;;;;;;;12.80;11.40;;;;;;;17.16;94.93;98075.25;105550;1284;22553;-89
2022/07/06 05:28:33;;;;;;;13.40;9.60;;;;;;;17.16;94.41;98069.44;105424;1284;23020;-86
2022/07/06 05:31:05;;;;;;;10.60;9.50;;;;;;;17.13;94.00;98069.61;105332;1284;23357;-90
2022/07/06 05:33:34;;;;;;;10.20;9.30;;;;;;;17.18;93.71;98075.02;105429;1285;22581;-87
2022/07/06 05:36:03;;;;;;;10.50;9.40;;;;;;;17.15;93.48;98074.69;106224;1284;23961;-86
2022/07/06 05:38:32;;;;;;;9.30;8.30;;;;;;;17.10;93.56;98075.27;107933;1284;22580;-88
2022/07/06 05:41:00;;;;;;;9.90;8.00;;;;;;;17.08;93.72;98073.52;105825;1284;25387;-89
2022/07/06 05:43:29;;;;;;;9.20;8.20;;;;;;;17.08;93.88;98074.91;105787;1285;24374;-88
2022/07/06 05:45:59;;;;;;;9.30;7.60;;;;;;;17.09;93.71;98076.27;105180;1284;22564;-86
2022/07/06 05:51:16;;;;;;;9.50;8.20;;;;;;;17.09;93.45;98076.44;105298;1284;22591;-86
2022/07/06 05:53:44;;;;;;;9.90;8.00;;;;;;;17.17;93.33;98077.07;105338;1284;22566;-86
2022/07/06 05:56:12;;;;;;;7.70;7.00;;;;;;;17.25;92.74;98077.52;105329;1284;22544;-88
2022/07/06 05:58:40;;;;;;;9.60;7.50;;;;;;;17.25;92.01;98077.83;105212;1283;22604;-88
2022/07/06 06:01:08;;;;;;;7.50;6.70;;;;;;;17.31;92.44;98078.64;105219;1284;23316;-87
2022/07/06 06:03:38;;;;;;;9.10;6.80;;;;;;;17.38;92.72;98079.96;105211;1285;22725;-88
2022/07/06 06:06:07;;;;;;;6.90;6.30;;;;;;;17.48;92.07;98078.88;105410;1284;22720;-86
2022/07/06 06:08:35;;;;;;;7.90;7.00;;;;;;;17.47;90.87;98078.38;105448;1284;22685;-84
2022/07/06 06:11:04;;;;;;;10.30;7.50;;;;;;;17.42;91.55;98082.64;105468;1285;22666;-85
2022/07/06 06:13:39;;;;;;;8.40;6.80;;;;;;;17.44;91.00;98088.87;105540;1284;22569;-86
2022/07/06 06:16:07;;;;;;;9.00;7.30;;;;;;;17.44;91.56;98088.48;105198;1285;24363;-85
2022/07/06 06:18:35;;;;;;;7.50;6.30;;;;;;;17.52;91.99;98092.41;105534;1284;25243;-89
2022/07/06 06:21:09;;;;;;;;;;;;;;;17.62;90.96;98094.05;105571;1285;22544;-85
2022/07/06 06:23:37;;;;;;;7.80;7.00;;;;;;;17.59;90.61;98090.77;105461;1284;23076;-88
2022/07/06 06:26:05;;;;;;;7.20;6.00;;;;;;;17.56;90.62;98091.35;105503;1284;22647;-86
2022/07/06 06:28:33;;;;;;;9.00;6.70;;;;;;;17.54;90.82;98092.08;105500;1284;23235;-85
2022/07/06 06:31:01;;;;;;;9.00;6.50;;;;;;;17.54;90.97;98093.41;105301;1284;23666;-88
2022/07/06 06:33:29;;;;;;;7.00;6.30;;;;;;;17.59;90.71;98094.19;105290;1284;25365;-88
2022/07/06 06:35:57;;;;;;;6.40;5.80;;;;;;;17.71;90.69;98092.31;105301;1284;22575;-87
2022/07/06 06:38:25;;;;;;;7.80;6.30;;;;;;;17.93;91.15;98089.45;105289;1284;25329;-87
2022/07/06 06:40:56;;;;;;;9.20;6.30;;;;;;;18.15;90.94;98088.32;105285;1284;22567;-86
2022/07/06 06:43:24;;;;;;;8.30;6.00;;;;;;;18.32;90.20;98093.36;105306;1284;24311;-85
2022/07/06 06:45:59;;;;;;;8.00;5.30;;;;;;;18.56;91.04;98091.46;105433;1285;24183;-88
2022/07/06 06:48:27;;;;;;;11.00;5.80;;;;;;;18.82;90.83;98091.98;105395;1284;23988;-86
2022/07/06 06:50:55;;;;;;;7.40;5.30;;;;;;;19.12;90.10;98090.38;105434;1284;22574;-87
2022/07/06 06:53:23;;;;;;;8.00;6.50;;;;;;;19.35;88.46;98094.01;105275;1284;22680;-86
2022/07/06 06:55:51;;;;;;;11.60;6.70;;;;;;;19.42;85.54;98099.02;105406;1284;22558;-88
2022/07/06 06:58:19;;;;;;;9.00;6.20;;;;;;;19.23;82.96;98102.91;105212;1285;22610;-86
2022/07/06 07:00:47;;;;;;;10.00;8.20;;;;;;;18.98;82.18;98105.84;105488;1284;24254;-86
2022/07/06 07:03:15;;;;;;;10.50;9.00;;;;;;;18.71;82.82;98103.98;105417;1284;22570;-86
2022/07/06 07:05:43;;;;;;;9.60;8.70;;;;;;;18.51;83.05;98110.67;105278;1284;22625;-86
2022/07/06 07:08:11;;;;;;;12.00;10.80;;;;;;;18.41;83.57;98108.02;105200;1284;22585;-85
2022/07/06 07:10:39;;;;;;;13.90;12.10;;;;;;;18.33;83.42;98109.45;105434;1284;22561;-85
2022/07/06 07:13:07;;;;;;;11.70;10.00;;;;;;;18.35;83.04;98119.31;105398;1284;22542;-86
2022/07/06 07:15:35;;;;;;;15.00;11.00;;;;;;;18.51;83.62;98107.32;105214;1284;25286;-85
2022/07/06 07:18:03;;;;;;;11.10;9.70;;;;;;;18.71;83.96;98105.30;105099;1284;23019;-86
2022/07/06 07:20:33;;;;;;;15.00;13.50;;;;;;;18.71;82.48;98103.74;105537;1284;22591;-88
2022/07/06 07:23:01;;;;;;;18.40;15.20;;;;;;;18.56;81.84;98105.02;105249;1285;25201;-85
2022/07/06 07:25:29;;;;;;;17.80;16.10;;;;;;;18.36;82.54;98104.05;105400;1284;25344;-87
2022/07/06 07:27:57;;;;;;;17.20;15.60;;;;;;;18.24;83.14;98111.66;105332;1284;22755;-86
2022/07/06 07:30:25;;;;;;;18.00;14.60;;;;;;;18.15;83.37;98118.80;105411;1284;22566;-84
2022/07/06 07:32:53;;;;;;;18.30;16.80;;;;;;;18.09;83.71;98118.83;105176;1284;23949;-86
2022/07/06 07:35:21;;;;;;;18.20;16.50;;;;;;;18.05;83.97;98114.44;105506;1285;22576;-85
2022/07/06 07:37:48;;;;;;;19.90;16.90;;;;;;;18.03;83.88;98113.27;105450;1284;25365;-86
2022/07/06 07:40:17;;;;;;;20.10;15.90;;;;;;;17.94;84.34;98127.09;105246;1285;22830;-85
2022/07/06 07:42:45;;;;;;;20.90;17.80;;;;;;;17.87;84.81;98134.58;105486;1284;24333;-87
2022/07/06 07:45:13;;;;;;;19.50;17.80;;;;;;;17.71;85.26;98133.66;105488;1284;25376;-86
2022/07/06 07:47:42;;;;;;;19.00;17.10;;;;;;;17.53;85.72;98136.86;105432;1284;22596;-86
2022/07/06 07:50:10;;;;;;;17.50;15.80;;;;;;;17.40;86.16;98139.88;105455;1284;22563;-86
2022/07/06 07:52:38;;;;;;;22.40;20.50;;;;;;;17.32;87.25;98149.63;105444;1284;24398;-86
2022/07/06 07:55:06;;;;;;;26.00;23.80;;;;;;;17.17;87.90;98160.26;105478;1284;25527;-85
2022/07/06 07:57:55;;;;;;;30.20;27.50;;;;;;;16.93;87.99;98164.45;105402;1285;22565;-83
2022/07/06 08:00:24;;;;;;;28.20;25.90;;;;;;;16.75;88.01;98162.95;105192;1284;26519;-86
2022/07/06 08:02:55;;;;;;;32.20;26.40;;;;;;;16.60;88.63;98163.55;105447;1284;22574;-85
2022/07/06 08:05:23;;;;;;;27.50;24.70;;;;;;;16.54;89.13;98165.17;105455;1284;22566;-86
2022/07/06 08:07:51;;;;;;;28.80;26.20;;;;;;;16.49;89.55;98170.75;105430;1284;22608;-86
2022/07/06 08:10:19;;;;;;;27.20;24.60;;;;;;;16.49;89.69;98176.02;105471;1284;24288;-85
2022/07/06 08:12:48;;;;;;;27.40;25.10;;;;;;;16.52;89.87;98177.86;105450;1284;23457;-85
2022/07/06 08:15:16;;;;;;;27.40;24.70;;;;;;;16.56;89.52;98176.98;105494;1284;22642;-85
2022/07/06 08:17:44;;;;;;;24.20;22.10;;;;;;;16.63;89.54;98170.85;105478;1284;25601;-87
2022/07/06 08:20:12;;;;;;;21.00;19.10;;;;;;;16.77;88.94;98170.88;105476;1284;22986;-87
2022/07/06 08:22:42;;;;;;;20.50;18.80;;;;;;;16.94;87.72;98173.76;105444;1284;24377;-86
2022/07/06 08:25:10;;;;;;;19.50;17.30;;;;;;;17.14;86.91;98173.52;105322;1284;25281;-86
2022/07/06 08:27:38;;;;;;;19.70;17.70;;;;;;;17.39;85.97;98173.29;105444;1284;22589;-88
2022/07/06 08:30:06;;;;;;;19.30;17.30;;;;;;;17.62;85.34;98176.56;105458;1284;22578;-85
2022/07/06 08:32:38;;;;;;;17.10;15.60;;;;;;;17.83;84.19;98177.83;105362;1284;24372;-90
2022/07/06 08:35:26;;;;;;;15.20;13.80;;;;;;;17.90;83.74;98179.86;105438;1284;23466;-85
2022/07/06 08:37:54;;;;;;;15.90;14.10;;;;;;;17.98;83.27;98180.67;105438;1284;22592;-85
2022/07/06 08:40:22;;;;;;;16.90;15.30;;;;;;;18.01;82.03;98186.91;105519;1284;26628;-86
2022/07/06 08:42:54;;;;;;;16.90;15.40;;;;;;;17.95;81.48;98182.30;105515;1284;23289;-87
2022/07/06 08:45:22;;;;;;;19.00;15.90;;;;;;;17.87;81.40;98201.02;105281;1285;25365;-87
2022/07/06 08:47:53;;;;;;;18.50;15.40;;;;;;;17.71;80.94;98194.31;105481;1284;22589;-87
2022/07/06 08:50:21;;;;;;;16.70;15.20;;;;;;;17.61;81.45;98190.56;105229;1285;24306;-83
2022/07/06 08:52:50;;;;;;;15.10;13.20;;;;;;;17.62;81.50;98188.65;105280;1284;24475;-84
2022/07/06 08:55:19;;;;;;;11.70;10.50;;;;;;;17.80;81.57;98191.27;105271;1284;22653;-84
2022/07/06 08:57:47;;;;;;;11.40;9.20;;;;;;;18.07;79.88;98193.11;105241;1284;22589;-85
2022/07/06 09:00:16;;;;;;;9.10;8.20;;;;;;;18.14;77.85;98188.81;105300;1284;23079;-85
2022/07/06 09:02:45;;;;;;;10.50;7.70;;;;;;;18.11;78.20;98187.63;105231;1284;24274;-85
2022/07/06 09:05:15;;;;;;;11.00;7.50;;;;;;;18.15;77.43;98190.56;105233;1284;26646;-84
2022/07/06 09:07:48;;;;;;;9.20;7.20;;;;;;;18.16;77.77;98189.80;105350;1284;25483;-88
2022/07/06 09:10:26;;;;;;;8.90;6.50;;;;;;;18.20;76.80;98188.04;105477;1284;22709;-88
2022/07/06 09:13:25;;;;;;;13.30;6.80;;;;;;;18.23;76.89;98186.98;105457;1284;23212;-87
2022/07/06 09:15:54;;;;;;;10.10;6.30;;;;;;;18.24;75.84;98185.61;105442;1284;22563;-85
2022/07/06 09:18:45;;;;;;;10.60;5.70;;;;;;;18.21;76.84;98181.64;105330;1284;25295;-87
2022/07/06 09:21:24;;;;;;;7.70;6.90;;;;;;;18.27;76.92;98172.54;105289;1284;23174;-85
2022/07/06 09:23:56;;;;;;;8.10;5.90;;;;;;;18.39;76.91;98172.11;105491;1284;22641;-91
2022/07/06 09:26:25;;;;;;;7.90;6.20;;;;;;;18.45;75.66;98169.96;105914;1284;24225;-91
2022/07/06 09:28:55;;;;;;;10.10;6.60;;;;;;;18.41;75.92;98169.68;105675;1284;23175;-91
2022/07/06 09:31:23;;;;;;;12.70;6.10;;;;;;;18.44;75.76;98174.52;106062;1284;22648;-90
2022/07/06 09:34:02;;;;;;;6.50;5.60;;;;;;;18.44;75.85;98168.48;105608;1283;22564;-91
2022/07/06 09:36:48;;;;;;;7.00;6.30;;;;;;;18.54;76.29;98164.40;105005;1285;23028;-90
2022/07/06 09:39:21;;;;;;;10.30;5.40;;;;;;;18.73;76.12;98158.56;105660;1283;22553;-89
2022/07/06 09:41:55;;;;;;;7.30;5.40;;;;;;;18.88;75.18;98159.63;106029;1284;24001;-90
2022/07/06 09:44:26;;;;;;;6.90;5.40;;;;;;;18.93;73.66;98153.15;105562;1284;24805;-92
2022/07/06 09:47:02;;;;;;;6.80;4.90;;;;;;;19.01;73.54;98151.97;105466;1284;22556;-89
2022/07/06 09:49:31;;;;;;;6.90;5.10;;;;;;;19.07;72.91;98150.95;105660;1284;22591;-91
2022/07/06 09:52:02;;;;;;;10.20;5.30;;;;;;;19.21;74.52;98145.17;106016;1284;22538;-91
2022/07/06 09:54:30;;;;;;;6.00;5.10;;;;;;;19.48;74.10;98144.71;105630;1284;24443;-92
2022/07/06 09:56:58;;;;;;;13.10;5.40;;;;;;;19.69;72.96;98145.41;105566;1284;25364;-90
2022/07/06 09:59:35;;;;;;;5.80;4.20;;;;;;;19.81;72.69;98143.45;105632;1284;23944;-90
2022/07/06 10:02:06;;;;;;;9.50;4.50;;;;;;;19.85;71.12;98141.13;105683;1284;22566;-91
2022/07/06 10:04:34;;;;;;;7.30;4.10;;;;;;;19.84;70.13;98148.34;106139;1284;22716;-89
2022/07/06 10:07:04;;;;;;;9.10;4.80;;;;;;;19.84;70.78;98149.83;105756;1284;22893;-90
2022/07/06 10:09:33;;;;;;;8.30;4.30;;;;;;;19.99;71.76;98147.31;105760;1284;25703;-92
2022/07/06 10:12:03;;;;;;;7.50;4.30;;;;;;;20.23;72.15;98145.58;105980;1284;22541;-89
2022/07/06 10:14:34;;;;;;;8.10;3.90;;;;;;;20.40;69.63;98150.35;105771;1284;22542;-90
2022/07/06 10:17:05;;;;;;;6.40;4.20;;;;;;;20.44;68.43;98150.28;105565;1284;23948;-90
2022/07/06 10:19:33;;;;;;;8.50;4.00;;;;;;;20.41;68.50;98148.05;105585;1284;22556;-89
2022/07/06 10:22:03;;;;;;;7.50;4.50;;;;;;;20.62;68.51;98140.69;105404;1284;23811;-90
2022/07/06 10:24:34;;;;;;;7.50;4.10;;;;;;;20.91;67.45;98146.44;105485;1284;22595;-91
2022/07/06 10:27:02;;;;;;;6.80;3.90;;;;;;;21.01;64.88;98146.65;105594;1284;22616;-90
2022/07/06 10:29:31;;;;;;;5.30;3.30;;;;;;;20.93;63.81;98148.59;105705;1284;22566;-91
2022/07/06 10:32:01;;;;;;;9.30;3.70;;;;;;;20.81;63.82;98149.90;105143;1286;25470;-91
2022/07/06 10:34:29;;;;;;;7.50;3.60;;;;;;;20.85;64.64;98150.31;105570;1285;22550;-89
2022/07/06 10:36:57;;;;;;;4.10;3.30;;;;;;;20.96;64.58;98145.84;105729;1284;22569;-91
2022/07/06 10:42:38;;;;;;;4.60;3.00;;;;;;;20.85;64.78;98158.14;105779;1284;22744;-90
2022/07/06 10:45:07;;;;;;;6.00;3.10;;;;;;;20.82;62.98;98158.31;105691;1284;23956;-90
2022/07/06 10:47:36;;;;;;;5.90;3.10;;;;;;;20.75;61.63;98156.83;105338;1285;22597;-91
2022/07/06 10:50:04;;;;;;;4.40;3.30;;;;;;;20.81;61.71;98153.99;105707;1284;25241;-88
2022/07/06 10:52:49;;;;;;;5.90;3.10;;;;;;;20.81;62.21;98156.97;105562;1284;22566;-91
2022/07/06 10:55:33;;;;;;;5.90;2.90;;;;;;;20.91;62.86;98152.72;105590;1284;24001;-91
2022/07/06 10:58:03;;;;;;;10.20;3.70;;;;;;;21.11;61.97;98152.02;105638;1284;22556;-93
2022/07/06 11:00:51;;;;;;;10.60;4.00;;;;;;;21.18;61.77;98157.22;105664;1284;23501;-92
2022/07/06 11:03:52;;;;;;;7.00;3.70;;;;;;;21.30;62.24;98157.36;105753;1284;22507;-91
2022/07/06 11:06:23;;;;;;;8.60;3.70;;;;;;;21.42;61.45;98158.71;105263;1285;22608;-93
2022/07/06 11:08:59;;;;;;;7.60;3.40;;;;;;;21.41;60.94;98162.67;105624;1284;23320;-93
2022/07/06 11:11:32;;;;;;;7.90;3.40;;;;;;;21.34;59.81;98164.65;105762;1284;22554;-90
2022/07/06 11:14:01;;;;;;;6.60;3.80;;;;;;;21.29;61.03;98161.96;106021;1284;22544;-88
2022/07/06 11:16:34;;;;;;;5.70;3.20;;;;;;;21.20;60.16;98159.70;106281;1284;24428;-92
2022/07/06 11:19:09;;;;;;;6.60;3.30;;;;;;;21.18;60.08;98165.84;105951;1283;22787;-93
2022/07/06 11:21:41;;;;;;;6.50;3.10;;;;;;;21.05;58.74;98168.17;106006;1284;24413;-91
2022/07/06 11:24:11;;;;;;;11.00;3.20;;;;;;;21.00;59.55;98161.40;105876;1284;22579;-90
2022/07/06 11:26:42;;;;;;;8.40;2.90;;;;;;;21.00;57.98;98172.21;105653;1285;25422;-92
2022/07/06 11:29:11;;;;;;;5.70;2.70;;;;;;;20.99;58.07;98173.36;105661;1285;22593;-92
2022/07/06 11:31:42;;;;;;;6.00;2.60;;;;;;;20.96;57.91;98169.23;105785;1284;25363;-91